Harlan, KY (40831)

10:37 AM EDT on March 30, 2015 (GMT -0400)
Rose Hill | | Change Station
CLOSE
Current Station
Personal Weather Station
Location: Rose Hill, VA
Elevation: 1860 ft
Nearby Weather Stations

Elev 1860 ft 36.67 °N, 83.29 °W | Updated 7 minutes ago

Mostly Cloudy
Mostly Cloudy
48.8 °F
Feels Like 49 °F
N
1.0
Wind Variable Wind from WNW
Gusts 4.0 mph

Today
High -- | Low -- °F
--% Chance of Precip.
Yesterday
High -- | Low -- °F
Precip. -- in
7:22 AM 7:53 PM
Waxing Gibbous, 80% visible
Pressure 30.12 in
Visibility 10.0 miles
Clouds Few 2600 ft
Mostly Cloudy 3300 ft
Windchill 49 °F
Dew Point 42 °F
Humidity 76%
Rainfall 0.07 in
Snow Depth Not available.
UV 2 out of 12
Pollen 7.80 out of 12
Air Quality Not available.
Flu Activity Not available.
METAR K0VG 301415Z AUTO 31007KT 10SM FEW026 BKN033 11/05 A3012 RMK AO2

More Conditions Fewer Conditions

Pressure 30.12 in
Visibility 10.0 miles
Clouds Few 2600 ft
Mostly Cloudy 3300 ft
Windchill 49 °F
Dew Point 42 °F
Humidity 76%
Rainfall 0.07 in
Snow Depth Not available.
UV 2 out of 12
Pollen 7.80 out of 12
Air Quality Not available.
Flu Activity Not available.
METAR K0VG 301415Z AUTO 31007KT 10SM FEW026 BKN033 11/05 A3012 RMK AO2

More Conditions Fewer Conditions

10-Day Weather Forecast

Almanac

Astronomy

Mar. 30, 2015 Rise Set
Actual Time
Civil Twilight
Nautical Twilight
Astronomical Twilight
Moon
Length of Visible Light
Length of Day
Tomorrow will be .
, % of the Moon is Illuminated

Today's Extremes

State Highs State Lows

Community

WunderPhotos

Upload Photos

1,809,506 photos uploaded!

WunderBlogs® & News

Nearby

Air Quality

  Air Quality AQ Index Pollutant
Not available.

Snow Depth

Station Depth Elevation

Earthquake Activity

City Distance Mag. Time & Date
Minimum magnitude displayed is 2.5.

Coastal Water Temperatures

Place Temperature

Stations

Nearby Weather Stations

Station Location Temp. Windchill Dew Point Humidity Wind Precip. Elev Updated Type